createdAt,value
2022-09-21T00:00:41.778Z,3.90
2022-09-21T00:01:42.273Z,4.20
2022-09-21T00:02:42.208Z,3.90
2022-09-21T00:03:41.773Z,4.20
2022-09-21T00:04:41.757Z,4.40
2022-09-21T00:05:42.218Z,4.40
2022-09-21T00:06:41.746Z,4.20
2022-09-21T00:07:42.225Z,4.30
2022-09-21T00:08:41.726Z,3.70
2022-09-21T00:09:41.726Z,3.90
2022-09-21T00:10:41.735Z,4.20
2022-09-21T00:11:41.707Z,4.30
2022-09-21T00:12:41.727Z,4.10
2022-09-21T00:13:41.702Z,4.00
2022-09-21T00:14:41.700Z,4.30
2022-09-21T00:15:41.685Z,3.90
2022-09-21T00:16:41.707Z,4.00
2022-09-21T00:17:41.683Z,4.10
2022-09-21T00:18:41.663Z,4.10
2022-09-21T00:19:41.653Z,3.90
2022-09-21T00:20:41.654Z,3.80
2022-09-21T00:21:41.641Z,4.10
2022-09-21T00:22:41.742Z,3.80
2022-09-21T00:23:41.622Z,3.80
2022-09-21T00:24:41.633Z,4.00
2022-09-21T00:25:41.624Z,4.50
2022-09-21T00:26:41.622Z,3.70
2022-09-21T00:27:41.631Z,4.10
2022-09-21T00:28:41.601Z,4.50
2022-09-21T00:29:41.591Z,4.10
2022-09-21T00:30:41.601Z,4.30
2022-09-21T00:31:41.605Z,4.40
2022-09-21T00:32:41.591Z,3.90
2022-09-21T00:33:41.564Z,3.80
2022-09-21T00:34:41.552Z,4.10
2022-09-21T00:35:41.540Z,4.10
2022-09-21T00:36:41.548Z,3.90
2022-09-21T00:37:41.711Z,3.90
2022-09-21T00:38:41.528Z,3.70
2022-09-21T00:39:41.519Z,4.10
2022-09-21T00:40:41.519Z,3.90
2022-09-21T00:41:41.507Z,3.90
2022-09-21T00:42:41.529Z,3.90
2022-09-21T00:43:41.637Z,4.10
2022-09-21T00:44:41.489Z,4.00
2022-09-21T00:45:41.509Z,3.80
2022-09-21T00:46:41.478Z,4.10
2022-09-21T00:47:41.466Z,4.00
2022-09-21T00:48:41.477Z,3.90
2022-09-21T00:49:41.456Z,3.90
2022-09-21T00:50:41.454Z,4.00
2022-09-21T00:51:41.436Z,3.70
2022-09-21T00:52:41.445Z,3.80
2022-09-21T00:53:41.475Z,4.20
2022-09-21T00:54:41.426Z,3.70
2022-09-21T00:55:41.413Z,4.40
2022-09-21T00:56:41.426Z,4.00
2022-09-21T00:57:41.555Z,3.90
2022-09-21T00:58:41.424Z,3.90
2022-09-21T00:59:41.400Z,3.80
2022-09-21T01:00:41.509Z,4.30
2022-09-21T01:01:41.373Z,4.30
2022-09-21T01:02:41.372Z,3.90
2022-09-21T01:03:41.585Z,4.50
2022-09-21T01:04:41.425Z,4.00
2022-09-21T01:05:41.364Z,4.00
2022-09-21T01:06:41.351Z,4.30
2022-09-21T01:07:41.523Z,4.40
2022-09-21T01:08:41.353Z,4.20
2022-09-21T01:09:41.357Z,4.70
2022-09-21T01:10:41.331Z,4.40
2022-09-21T01:11:41.341Z,4.30
2022-09-21T01:12:41.319Z,4.80
2022-09-21T01:13:41.429Z,4.00
2022-09-21T01:14:41.290Z,4.50
2022-09-21T01:15:41.288Z,4.50
2022-09-21T01:16:41.494Z,4.80
2022-09-21T01:17:41.271Z,4.70
2022-09-21T01:18:41.450Z,4.50
2022-09-21T01:19:41.459Z,4.50
2022-09-21T01:20:41.469Z,4.40
2022-09-21T01:21:41.482Z,4.20
2022-09-21T01:22:41.619Z,4.60
2022-09-21T01:23:41.257Z,4.40
2022-09-21T01:24:41.224Z,4.30
2022-09-21T01:25:41.250Z,4.50
2022-09-21T01:26:41.220Z,4.40
2022-09-21T01:27:41.213Z,4.20
2022-09-21T01:28:41.225Z,4.50
2022-09-21T01:29:41.337Z,4.60
2022-09-21T01:30:43.674Z,4.20
2022-09-21T01:31:41.276Z,4.30
2022-09-21T01:32:41.560Z,4.20
2022-09-21T01:33:41.176Z,3.90
2022-09-21T01:34:41.174Z,4.20
2022-09-21T01:35:41.158Z,4.40
2022-09-21T01:36:41.156Z,4.20
2022-09-21T01:37:41.776Z,4.10
2022-09-21T01:38:41.597Z,4.00
2022-09-21T01:39:41.175Z,4.20
2022-09-21T01:40:41.177Z,3.80
2022-09-21T01:41:41.114Z,4.10
2022-09-21T01:42:41.138Z,4.20
2022-09-21T01:43:41.094Z,4.30
2022-09-21T01:44:41.095Z,4.50
2022-09-21T01:45:41.129Z,4.40
2022-09-21T01:46:41.073Z,4.30
2022-09-21T01:47:41.092Z,4.20
2022-09-21T01:48:41.072Z,4.70
2022-09-21T01:49:41.483Z,4.40
2022-09-21T01:50:41.052Z,4.40
2022-09-21T01:51:41.063Z,4.40
2022-09-21T01:52:41.841Z,3.90
2022-09-21T01:53:41.712Z,4.10
2022-09-21T01:54:41.039Z,4.30
2022-09-21T01:55:41.032Z,4.40
2022-09-21T01:56:41.514Z,4.00
2022-09-21T01:57:41.362Z,4.20
2022-09-21T01:58:41.005Z,4.00
2022-09-21T01:59:41.001Z,4.50
2022-09-21T02:00:41.037Z,4.60
2022-09-21T02:01:41.953Z,4.30
2022-09-21T02:02:41.909Z,4.50
2022-09-21T02:03:40.969Z,4.80
2022-09-21T02:04:40.971Z,4.40
2022-09-21T02:05:41.878Z,4.30
2022-09-21T02:06:40.948Z,4.40
2022-09-21T02:07:41.590Z,5.10
2022-09-21T02:08:41.847Z,4.40
2022-09-21T02:09:40.948Z,4.80
2022-09-21T02:10:40.967Z,4.70
2022-09-21T02:11:41.787Z,4.60
2022-09-21T02:12:41.014Z,4.80
2022-09-21T02:13:41.878Z,4.60
2022-09-21T02:14:41.015Z,4.90
2022-09-21T02:15:40.896Z,4.60
2022-09-21T02:16:40.887Z,4.60
2022-09-21T02:17:40.876Z,4.60
2022-09-21T02:18:40.883Z,4.20
2022-09-21T02:19:40.885Z,4.80
2022-09-21T02:20:40.883Z,4.70
2022-09-21T02:21:40.884Z,4.60
2022-09-21T02:22:40.895Z,5.00
2022-09-21T02:23:41.064Z,4.90
2022-09-21T02:24:40.857Z,4.60
2022-09-21T02:25:41.081Z,4.70
2022-09-21T02:26:40.848Z,4.70
2022-09-21T02:27:40.813Z,4.70
2022-09-21T02:28:40.807Z,4.80
2022-09-21T02:29:41.104Z,4.40
2022-09-21T02:30:40.813Z,4.60
2022-09-21T02:31:41.381Z,4.90
2022-09-21T02:32:40.794Z,4.80
2022-09-21T02:33:40.849Z,4.80
2022-09-21T02:34:41.332Z,4.90
2022-09-21T02:35:41.673Z,5.00
2022-09-21T02:36:40.741Z,5.00
2022-09-21T02:37:40.752Z,5.20
2022-09-21T02:38:40.740Z,4.90
2022-09-21T02:39:40.749Z,5.20
2022-09-21T02:40:41.590Z,4.70
2022-09-21T02:41:41.751Z,5.20
2022-09-21T02:42:40.860Z,4.90
2022-09-21T02:43:41.560Z,4.80
2022-09-21T02:44:41.241Z,4.90
2022-09-21T02:45:40.791Z,5.30
2022-09-21T02:46:41.274Z,5.30
2022-09-21T02:47:40.818Z,4.90
2022-09-21T02:48:41.589Z,5.10
2022-09-21T02:49:41.498Z,5.30
2022-09-21T02:50:40.711Z,5.20
2022-09-21T02:51:40.681Z,4.70
2022-09-21T02:52:40.658Z,5.00
2022-09-21T02:53:40.647Z,5.20
2022-09-21T02:54:40.698Z,5.10
2022-09-21T02:55:40.707Z,4.80
2022-09-21T02:56:40.855Z,5.50
2022-09-21T02:57:40.866Z,5.20
2022-09-21T02:58:40.866Z,5.20
2022-09-21T02:59:40.875Z,5.00
2022-09-21T03:00:40.982Z,4.60
2022-09-21T03:01:40.754Z,4.90
2022-09-21T03:02:40.599Z,5.20
2022-09-21T03:03:40.579Z,4.80
2022-09-21T03:04:40.576Z,5.40
2022-09-21T03:05:40.583Z,5.10
2022-09-21T03:06:40.554Z,5.10
2022-09-21T03:07:40.564Z,4.90
2022-09-21T03:08:40.541Z,5.40
2022-09-21T03:09:40.545Z,5.20
2022-09-21T03:10:40.552Z,4.90
2022-09-21T03:11:40.601Z,5.10
2022-09-21T03:12:40.522Z,5.10
2022-09-21T03:13:40.579Z,4.90
2022-09-21T03:14:40.510Z,4.90
2022-09-21T03:15:40.620Z,5.20
2022-09-21T03:16:40.491Z,4.70
2022-09-21T03:17:40.512Z,5.20
2022-09-21T03:18:40.488Z,5.00
2022-09-21T03:19:40.522Z,5.00
2022-09-21T03:20:40.478Z,5.30
2022-09-21T03:21:44.444Z,5.30
2022-09-21T03:22:40.450Z,5.30
2022-09-21T03:23:40.439Z,5.00
2022-09-21T03:24:40.724Z,5.00
2022-09-21T03:25:40.449Z,5.10
2022-09-21T03:26:40.420Z,5.30
2022-09-21T03:27:40.415Z,5.20
2022-09-21T03:28:40.449Z,5.30
2022-09-21T03:29:40.397Z,5.30
2022-09-21T03:30:40.437Z,5.10
2022-09-21T03:31:40.395Z,5.40
2022-09-21T03:32:40.378Z,5.10
2022-09-21T03:33:40.366Z,5.60
2022-09-21T03:34:40.365Z,5.50
2022-09-21T03:35:40.377Z,5.60
2022-09-21T03:36:40.346Z,5.30
2022-09-21T03:37:41.460Z,5.50
2022-09-21T03:38:40.790Z,5.70
2022-09-21T03:39:40.333Z,5.30
2022-09-21T03:40:40.362Z,5.30
2022-09-21T03:41:40.326Z,5.50
2022-09-21T03:42:40.303Z,5.20
2022-09-21T03:43:40.304Z,5.20
2022-09-21T03:44:40.432Z,6.70
2022-09-21T03:45:40.973Z,8.40
2022-09-21T03:46:40.311Z,13.80
2022-09-21T03:47:40.284Z,8.50
2022-09-21T03:48:40.272Z,7.70
2022-09-21T03:49:40.282Z,5.90
2022-09-21T03:50:40.283Z,5.80
2022-09-21T03:51:40.385Z,5.70
2022-09-21T03:52:40.242Z,5.50
2022-09-21T03:53:40.242Z,5.40
2022-09-21T03:54:40.241Z,5.20
2022-09-21T03:55:40.240Z,5.20
2022-09-21T03:56:40.221Z,5.20
2022-09-21T03:57:40.230Z,4.90
2022-09-21T03:58:40.210Z,5.30
2022-09-21T03:59:40.210Z,5.20
2022-09-21T04:00:40.241Z,5.10
2022-09-21T04:01:40.305Z,5.50
2022-09-21T04:02:40.198Z,5.30
2022-09-21T04:03:40.340Z,5.30
2022-09-21T04:04:40.358Z,5.50
2022-09-21T04:05:40.179Z,5.40
2022-09-21T04:06:40.159Z,5.10
2022-09-21T04:07:40.148Z,5.50
2022-09-21T04:08:40.147Z,5.60
2022-09-21T04:09:40.309Z,5.40
2022-09-21T04:10:40.148Z,5.30
2022-09-21T04:11:40.129Z,5.40
2022-09-21T04:12:40.118Z,5.40
2022-09-21T04:13:40.107Z,5.50
2022-09-21T04:14:40.109Z,5.50
2022-09-21T04:15:40.114Z,5.50
2022-09-21T04:16:40.131Z,5.20
2022-09-21T04:17:40.086Z,5.60
2022-09-21T04:18:40.446Z,5.80
2022-09-21T04:19:40.075Z,6.10
2022-09-21T04:20:40.595Z,6.70
2022-09-21T04:21:40.065Z,6.40
2022-09-21T04:22:43.481Z,5.90
2022-09-21T04:23:40.044Z,5.60
2022-09-21T04:24:40.034Z,5.90
2022-09-21T04:25:40.031Z,6.10
2022-09-21T04:26:40.053Z,5.60
2022-09-21T04:27:40.413Z,5.40
2022-09-21T04:28:40.006Z,5.60
2022-09-21T04:29:40.063Z,5.40
2022-09-21T04:30:40.097Z,5.60
2022-09-21T04:31:40.043Z,6.20
2022-09-21T04:32:40.660Z,5.40
2022-09-21T04:33:39.993Z,5.50
2022-09-21T04:34:39.975Z,5.40
2022-09-21T04:35:39.961Z,5.50
2022-09-21T04:36:39.972Z,5.70
2022-09-21T04:37:39.968Z,5.10
2022-09-21T04:38:39.942Z,5.50
2022-09-21T04:39:39.959Z,5.50
2022-09-21T04:40:40.549Z,5.40
2022-09-21T04:41:40.813Z,5.60
2022-09-21T04:42:40.820Z,5.90
2022-09-21T04:43:39.918Z,5.70
2022-09-21T04:44:39.909Z,5.70
2022-09-21T04:45:39.913Z,6.10
2022-09-21T04:46:40.008Z,5.80
2022-09-21T04:47:39.909Z,6.00
2022-09-21T04:48:40.147Z,5.90
2022-09-21T04:49:40.038Z,5.60
2022-09-21T04:50:39.960Z,6.40
2022-09-21T04:51:39.900Z,6.00
2022-09-21T04:52:39.898Z,6.40
2022-09-21T04:53:39.867Z,6.30
2022-09-21T04:54:39.836Z,6.20
2022-09-21T04:55:39.838Z,5.90
2022-09-21T04:56:39.844Z,5.90
2022-09-21T04:57:39.825Z,5.70
2022-09-21T04:58:39.814Z,6.00
2022-09-21T04:59:39.805Z,5.90
2022-09-21T05:00:39.794Z,5.70
2022-09-21T05:01:39.867Z,5.90
2022-09-21T05:02:39.784Z,5.90
2022-09-21T05:03:39.991Z,6.50
2022-09-21T05:04:39.941Z,6.20
2022-09-21T05:05:39.789Z,7.00
2022-09-21T05:06:39.783Z,6.20
2022-09-21T05:07:39.763Z,6.60
2022-09-21T05:08:39.743Z,6.80
2022-09-21T05:09:39.873Z,7.00
2022-09-21T05:10:39.884Z,6.50
2022-09-21T05:11:39.742Z,6.30
2022-09-21T05:12:41.115Z,6.00
2022-09-21T05:13:39.719Z,6.60
2022-09-21T05:14:39.701Z,6.30
2022-09-21T05:15:39.721Z,6.30
2022-09-21T05:16:39.712Z,6.30
2022-09-21T05:17:39.819Z,6.60
2022-09-21T05:18:39.681Z,6.10
2022-09-21T05:19:40.145Z,5.90
2022-09-21T05:20:39.688Z,6.20
2022-09-21T05:21:39.749Z,6.60
2022-09-21T05:22:39.689Z,6.30
2022-09-21T05:23:39.652Z,6.30
2022-09-21T05:24:39.667Z,6.60
2022-09-21T05:25:39.668Z,6.40
2022-09-21T05:26:39.649Z,6.20
2022-09-21T05:27:39.618Z,6.60
2022-09-21T05:28:40.358Z,6.70
2022-09-21T05:29:39.607Z,6.50
2022-09-21T05:30:47.820Z,6.60
2022-09-21T05:31:39.798Z,6.30
2022-09-21T05:32:39.587Z,6.00
2022-09-21T05:33:39.577Z,6.10
2022-09-21T05:34:39.576Z,6.00
2022-09-21T05:35:39.567Z,6.20
2022-09-21T05:36:39.593Z,6.10
2022-09-21T05:37:39.554Z,6.00
2022-09-21T05:38:39.555Z,6.60
2022-09-21T05:39:39.545Z,6.20
2022-09-21T05:40:39.596Z,6.20
2022-09-21T05:41:39.535Z,6.00
2022-09-21T05:42:39.554Z,6.40
2022-09-21T05:43:39.589Z,6.10
2022-09-21T05:44:39.513Z,6.30
2022-09-21T05:45:39.771Z,6.10
2022-09-21T05:46:39.507Z,6.00
2022-09-21T05:47:39.504Z,6.40
2022-09-21T05:48:39.493Z,6.40
2022-09-21T05:49:39.483Z,6.30
2022-09-21T05:50:39.473Z,6.40
2022-09-21T05:51:39.484Z,6.40
2022-09-21T05:52:39.492Z,6.80
2022-09-21T05:53:39.462Z,6.40
2022-09-21T05:54:39.482Z,6.10
2022-09-21T05:55:39.874Z,6.40
2022-09-21T05:56:39.883Z,6.10
2022-09-21T05:57:39.471Z,6.60
2022-09-21T05:58:39.430Z,5.80
2022-09-21T05:59:39.431Z,6.00
2022-09-21T06:00:39.440Z,6.00
2022-09-21T06:01:39.473Z,5.90
2022-09-21T06:02:39.458Z,5.70
2022-09-21T06:03:39.521Z,5.60
2022-09-21T06:04:39.399Z,5.50
2022-09-21T06:05:39.449Z,5.30
2022-09-21T06:06:39.468Z,5.60
2022-09-21T06:07:39.770Z,5.70
2022-09-21T06:08:39.372Z,5.20
2022-09-21T06:09:43.071Z,5.00
2022-09-21T06:10:39.378Z,5.50
2022-09-21T06:11:39.379Z,6.00
2022-09-21T06:12:39.372Z,5.80
2022-09-21T06:13:39.366Z,5.80
2022-09-21T06:14:40.014Z,5.50
2022-09-21T06:15:39.307Z,5.20
2022-09-21T06:16:40.168Z,5.50
2022-09-21T06:17:39.306Z,4.80
2022-09-21T06:18:39.296Z,4.80
2022-09-21T06:19:40.254Z,5.10
2022-09-21T06:20:40.187Z,5.10
2022-09-21T06:21:39.445Z,5.10
2022-09-21T06:22:40.259Z,4.80
2022-09-21T06:23:40.155Z,5.00
2022-09-21T06:24:39.544Z,4.80
2022-09-21T06:25:40.215Z,4.50
2022-09-21T06:26:39.255Z,5.10
2022-09-21T06:27:40.274Z,4.80
2022-09-21T06:28:39.234Z,5.30
2022-09-21T06:29:40.092Z,4.80
2022-09-21T06:30:39.282Z,4.60
2022-09-21T06:31:39.212Z,4.90
2022-09-21T06:32:40.052Z,4.70
2022-09-21T06:33:39.203Z,4.70
2022-09-21T06:34:39.203Z,4.80
2022-09-21T06:35:39.216Z,4.80
2022-09-21T06:36:39.180Z,5.10
2022-09-21T06:37:39.182Z,4.90
2022-09-21T06:38:39.161Z,5.20
2022-09-21T06:39:39.433Z,5.10
2022-09-21T06:40:39.494Z,5.50
2022-09-21T06:41:39.572Z,5.30
2022-09-21T06:42:39.588Z,5.50
2022-09-21T06:43:39.592Z,5.80
2022-09-21T06:44:39.670Z,5.50
2022-09-21T06:45:39.135Z,5.50
2022-09-21T06:46:39.790Z,5.50
2022-09-21T06:47:39.412Z,5.40
2022-09-21T06:48:39.807Z,5.60
2022-09-21T06:49:42.490Z,5.00
2022-09-21T06:50:39.910Z,5.00
2022-09-21T06:51:40.029Z,5.30
2022-09-21T06:52:40.058Z,5.00
2022-09-21T06:53:39.058Z,4.70
2022-09-21T06:54:39.058Z,4.90
2022-09-21T06:55:39.063Z,4.60
2022-09-21T06:56:39.146Z,4.80
2022-09-21T06:57:39.158Z,4.50
2022-09-21T06:58:39.288Z,4.70
2022-09-21T06:59:39.288Z,4.60
2022-09-21T07:00:39.297Z,4.20
2022-09-21T07:01:39.528Z,4.20
2022-09-21T07:02:39.388Z,4.40
2022-09-21T07:03:39.535Z,4.40
2022-09-21T07:04:39.069Z,5.00
2022-09-21T07:05:39.436Z,4.90
2022-09-21T07:06:39.410Z,4.90
2022-09-21T07:07:39.631Z,5.40
2022-09-21T07:10:39.023Z,6.00
2022-09-21T07:11:38.955Z,6.40
2022-09-21T07:12:38.964Z,5.70
2022-09-21T07:13:39.035Z,5.90
2022-09-21T07:14:38.984Z,5.40
2022-09-21T07:15:39.192Z,6.30
2022-09-21T07:16:39.019Z,6.20
2022-09-21T07:17:39.204Z,6.90
2022-09-21T07:18:43.469Z,6.40
2022-09-21T07:19:39.451Z,6.40
2022-09-21T07:20:38.894Z,6.50
2022-09-21T07:21:38.876Z,6.60
2022-09-21T07:22:39.444Z,6.00
2022-09-21T07:23:38.884Z,5.80
2022-09-21T07:24:38.856Z,6.10
2022-09-21T07:25:38.852Z,5.90
2022-09-21T07:26:38.842Z,6.00
2022-09-21T07:27:39.695Z,5.50
2022-09-21T07:28:38.831Z,5.50
2022-09-21T07:29:38.825Z,6.10
2022-09-21T07:30:38.818Z,5.90
2022-09-21T07:31:38.898Z,4.90
2022-09-21T07:32:38.824Z,5.10
2022-09-21T07:33:38.792Z,5.50
2022-09-21T07:34:38.791Z,5.00
2022-09-21T07:35:38.779Z,5.00
2022-09-21T07:36:38.771Z,5.30
2022-09-21T07:37:38.779Z,5.00
2022-09-21T07:38:38.757Z,5.00
2022-09-21T07:39:38.759Z,4.90
2022-09-21T07:40:39.049Z,5.10
2022-09-21T07:41:38.760Z,4.90
2022-09-21T07:42:39.009Z,5.40
2022-09-21T07:43:39.026Z,5.10
2022-09-21T07:44:39.049Z,5.40
2022-09-21T07:45:39.081Z,5.10
2022-09-21T07:46:42.768Z,5.20
2022-09-21T07:47:38.801Z,4.90
2022-09-21T07:48:38.715Z,5.50
2022-09-21T07:49:38.688Z,5.40
2022-09-21T07:50:38.688Z,5.00
2022-09-21T07:51:38.837Z,5.50
2022-09-21T07:52:38.837Z,5.00
2022-09-21T07:53:38.837Z,5.00
2022-09-21T07:54:38.986Z,5.00
2022-09-21T07:55:38.907Z,4.70
2022-09-21T07:56:38.937Z,4.80
2022-09-21T07:57:38.868Z,4.80
2022-09-21T07:58:39.086Z,4.70
2022-09-21T07:59:38.925Z,4.80
2022-09-21T08:00:39.120Z,5.10
2022-09-21T08:01:39.274Z,6.00
2022-09-21T08:02:42.652Z,5.90
2022-09-21T08:03:38.825Z,5.50
2022-09-21T08:04:39.315Z,5.40
2022-09-21T08:05:38.615Z,5.10
2022-09-21T08:06:38.588Z,5.60
2022-09-21T08:07:38.587Z,5.10
2022-09-21T08:08:38.573Z,5.10
2022-09-21T08:09:38.574Z,5.60
2022-09-21T08:10:38.552Z,5.10
2022-09-21T08:11:38.554Z,4.90
2022-09-21T08:12:38.568Z,5.00
2022-09-21T08:13:38.564Z,4.70
2022-09-21T08:14:38.572Z,4.50
2022-09-21T08:15:49.391Z,5.00
2022-09-21T08:16:38.657Z,4.90
2022-09-21T08:17:38.642Z,5.00
2022-09-21T08:18:38.656Z,4.60
2022-09-21T08:19:38.653Z,4.60
2022-09-21T08:20:38.664Z,4.60
2022-09-21T08:21:38.472Z,4.60
2022-09-21T08:22:38.833Z,4.60
2022-09-21T08:23:38.463Z,4.20
2022-09-21T08:24:38.481Z,4.50
2022-09-21T08:25:38.652Z,4.40
2022-09-21T08:26:38.660Z,4.60
2022-09-21T08:27:38.664Z,4.70
2022-09-21T08:28:38.504Z,4.50
2022-09-21T08:29:38.527Z,4.30
2022-09-21T08:30:38.529Z,4.70
2022-09-21T08:31:38.579Z,4.70
2022-09-21T08:32:50.900Z,4.30
2022-09-21T08:33:38.701Z,4.30
2022-09-21T08:34:38.725Z,4.30
2022-09-21T08:35:38.564Z,4.40
2022-09-21T08:36:38.521Z,4.60
2022-09-21T08:37:38.968Z,4.20
2022-09-21T08:38:38.889Z,3.90
2022-09-21T08:39:38.572Z,4.10
2022-09-21T08:40:38.410Z,3.80
2022-09-21T08:41:38.358Z,4.00
2022-09-21T08:42:38.380Z,3.90
2022-09-21T08:43:38.400Z,4.30
2022-09-21T08:44:38.391Z,3.70
2022-09-21T08:45:38.420Z,4.10
2022-09-21T08:46:38.681Z,3.60
2022-09-21T08:47:38.407Z,3.20
2022-09-21T08:48:38.317Z,3.30
2022-09-21T08:49:38.269Z,2.90
2022-09-21T08:50:38.828Z,2.90
2022-09-21T08:51:38.839Z,2.90
2022-09-21T08:52:38.259Z,3.10
2022-09-21T08:53:38.258Z,3.50
2022-09-21T08:54:38.438Z,3.20
2022-09-21T08:55:38.648Z,3.20
2022-09-21T08:57:01.024Z,2.70
2022-09-21T08:57:38.698Z,2.90
2022-09-21T08:58:38.267Z,2.90
2022-09-21T08:59:39.126Z,3.10
2022-09-21T09:00:38.323Z,3.20
2022-09-21T09:01:38.331Z,3.10
2022-09-21T09:02:38.345Z,2.70
2022-09-21T09:03:41.177Z,2.60
2022-09-21T09:04:38.407Z,2.50
2022-09-21T09:05:38.537Z,2.60
2022-09-21T09:06:38.366Z,2.80
2022-09-21T09:07:38.157Z,2.50
2022-09-21T09:08:38.756Z,2.50
2022-09-21T09:09:38.158Z,2.70
2022-09-21T09:10:38.165Z,2.60
2022-09-21T09:11:38.195Z,2.10
2022-09-21T09:12:38.165Z,2.00
2022-09-21T09:13:38.198Z,2.00
2022-09-21T09:14:38.205Z,1.90
2022-09-21T09:15:38.186Z,2.10
2022-09-21T09:16:38.302Z,2.00
2022-09-21T09:17:38.186Z,2.40
2022-09-21T09:18:42.730Z,2.00
2022-09-21T09:19:38.225Z,1.80
2022-09-21T09:20:38.232Z,1.90
2022-09-21T09:21:38.224Z,1.80
2022-09-21T09:22:38.435Z,1.80
2022-09-21T09:23:38.064Z,1.70
2022-09-21T09:24:38.243Z,2.00
2022-09-21T09:25:38.043Z,2.10
2022-09-21T09:26:39.503Z,2.00
2022-09-21T09:27:38.454Z,1.80
2022-09-21T09:28:38.054Z,1.70
2022-09-21T09:29:38.473Z,1.90
2022-09-21T09:30:38.485Z,2.00
2022-09-21T09:31:38.392Z,1.60
2022-09-21T09:32:38.304Z,1.50
2022-09-21T09:33:38.096Z,1.80
2022-09-21T09:34:37.974Z,1.80
2022-09-21T09:35:37.973Z,1.70
2022-09-21T09:36:57.262Z,1.60
2022-09-21T09:37:37.954Z,1.40
2022-09-21T09:38:37.943Z,1.80
2022-09-21T09:39:37.953Z,1.50
2022-09-21T09:40:37.985Z,1.70
2022-09-21T09:41:37.932Z,1.90
2022-09-21T09:42:37.923Z,1.90
2022-09-21T09:43:37.943Z,2.10
2022-09-21T09:44:37.972Z,1.80
2022-09-21T09:45:37.970Z,1.90
2022-09-21T09:46:38.116Z,1.80
2022-09-21T09:47:38.009Z,2.00
2022-09-21T09:48:37.902Z,1.50
2022-09-21T09:49:37.893Z,1.80
2022-09-21T09:50:37.912Z,1.90
2022-09-21T09:51:38.011Z,1.80
2022-09-21T09:52:37.861Z,1.60
2022-09-21T09:53:37.852Z,1.60
2022-09-21T09:54:37.919Z,1.60
2022-09-21T09:55:38.113Z,1.40
2022-09-21T09:56:38.091Z,1.20
2022-09-21T09:57:38.079Z,1.50
2022-09-21T09:58:38.101Z,1.60
2022-09-21T09:59:38.121Z,1.40
2022-09-21T10:00:38.109Z,1.70
2022-09-21T10:01:38.185Z,1.40
2022-09-21T10:02:38.120Z,1.60
2022-09-21T10:03:38.131Z,1.60
2022-09-21T10:04:38.193Z,1.80
2022-09-21T10:05:37.909Z,1.60
2022-09-21T10:06:41.182Z,1.60
2022-09-21T10:07:38.170Z,1.70
2022-09-21T10:08:37.739Z,1.60
2022-09-21T10:09:38.179Z,1.60
2022-09-21T10:10:37.750Z,1.70
2022-09-21T10:11:37.751Z,1.80
2022-09-21T10:12:37.779Z,1.70
2022-09-21T10:13:37.719Z,1.70
2022-09-21T10:14:37.970Z,1.80
2022-09-21T10:15:38.008Z,1.70
2022-09-21T10:16:37.768Z,1.40
2022-09-21T10:17:37.669Z,1.90
2022-09-21T10:18:38.218Z,1.80
2022-09-21T10:19:38.243Z,2.00
2022-09-21T10:20:38.010Z,1.90
2022-09-21T10:21:38.219Z,1.90
2022-09-21T10:22:38.018Z,1.80
2022-09-21T10:23:37.749Z,1.50
2022-09-21T10:24:37.818Z,1.80
2022-09-21T10:25:40.168Z,1.40
2022-09-21T10:26:38.517Z,1.70
2022-09-21T10:27:37.632Z,1.50
2022-09-21T10:28:37.680Z,1.50
2022-09-21T10:29:37.667Z,1.60
2022-09-21T10:30:37.669Z,1.90
2022-09-21T10:31:37.713Z,1.50
2022-09-21T10:32:38.056Z,1.50
2022-09-21T10:33:37.686Z,1.30
2022-09-21T10:34:37.907Z,1.30
2022-09-21T10:35:38.127Z,1.40
2022-09-21T10:36:38.128Z,1.20
2022-09-21T10:37:38.127Z,1.30
2022-09-21T10:38:38.128Z,1.30
2022-09-21T10:39:37.854Z,1.20
2022-09-21T10:40:37.794Z,1.10
2022-09-21T10:41:38.146Z,1.10
2022-09-21T10:42:38.346Z,1.30
2022-09-21T10:43:41.165Z,1.50
2022-09-21T10:44:37.787Z,1.60
2022-09-21T10:45:37.557Z,1.20
2022-09-21T10:46:37.680Z,1.20
2022-09-21T10:47:37.596Z,1.30
2022-09-21T10:48:37.576Z,1.40
2022-09-21T10:49:37.587Z,1.40
2022-09-21T10:50:37.466Z,1.50
2022-09-21T10:51:37.606Z,1.60
2022-09-21T10:52:37.596Z,1.90
2022-09-21T10:53:37.438Z,2.00
2022-09-21T10:54:37.615Z,1.90
2022-09-21T10:55:40.845Z,1.60
2022-09-21T10:56:37.645Z,1.60
2022-09-21T10:57:37.835Z,1.40
2022-09-21T10:58:37.425Z,1.50
2022-09-21T10:59:37.425Z,1.50
2022-09-21T11:00:37.856Z,1.40
2022-09-21T11:01:37.894Z,1.50
2022-09-21T11:02:37.506Z,1.90
2022-09-21T11:03:37.468Z,1.60
2022-09-21T11:04:37.712Z,2.00
2022-09-21T11:05:37.896Z,2.20
2022-09-21T11:06:37.897Z,2.20
2022-09-21T11:07:37.915Z,2.60
2022-09-21T11:08:37.411Z,2.20
2022-09-21T11:09:37.504Z,2.10
2022-09-21T11:10:37.535Z,1.90
2022-09-21T11:11:37.924Z,1.60
2022-09-21T11:12:37.305Z,1.60
2022-09-21T11:13:37.955Z,1.60
2022-09-21T11:14:38.144Z,1.50
2022-09-21T11:15:37.791Z,1.70
2022-09-21T11:16:37.355Z,1.60
2022-09-21T11:17:37.564Z,1.50
2022-09-21T11:18:38.184Z,1.40
2022-09-21T11:19:37.990Z,1.60
2022-09-21T11:20:37.574Z,1.80
2022-09-21T11:21:37.234Z,1.40
2022-09-21T11:22:37.394Z,1.50
2022-09-21T11:23:37.278Z,1.60
2022-09-21T11:24:37.224Z,2.20
2022-09-21T11:25:37.253Z,2.00
2022-09-21T11:26:37.254Z,2.30
2022-09-21T11:27:37.468Z,2.10
2022-09-21T11:28:37.572Z,2.50
2022-09-21T11:29:37.223Z,2.40
2022-09-21T11:30:37.260Z,2.10
2022-09-21T11:31:37.235Z,2.00
2022-09-21T11:32:37.248Z,1.90
2022-09-21T11:33:37.675Z,2.00
2022-09-21T11:34:37.693Z,2.00
2022-09-21T11:35:37.711Z,1.90
2022-09-21T11:36:37.924Z,2.00
2022-09-21T11:37:37.963Z,2.20
2022-09-21T11:38:38.800Z,1.80
2022-09-21T11:39:37.154Z,1.80
2022-09-21T11:40:37.142Z,2.00
2022-09-21T11:41:37.123Z,2.20
2022-09-21T11:42:37.115Z,2.10
2022-09-21T11:43:37.100Z,2.30
2022-09-21T11:44:37.104Z,1.90
2022-09-21T11:45:37.123Z,2.50
2022-09-21T11:46:37.168Z,1.80
2022-09-21T11:47:37.162Z,2.00
2022-09-21T11:48:37.154Z,2.20
2022-09-21T11:49:37.174Z,2.20
2022-09-21T11:50:37.182Z,1.90
2022-09-21T11:51:37.165Z,2.30
2022-09-21T11:52:37.214Z,2.40
2022-09-21T11:53:37.013Z,2.10
2022-09-21T11:54:37.226Z,2.00
2022-09-21T11:55:37.243Z,1.90
2022-09-21T11:56:36.993Z,1.90
2022-09-21T11:57:37.004Z,2.10
2022-09-21T11:58:37.025Z,2.00
2022-09-21T11:59:37.014Z,2.00
2022-09-21T12:00:37.045Z,2.30
2022-09-21T12:01:37.243Z,2.10
2022-09-21T12:02:37.435Z,1.80
2022-09-21T12:03:37.245Z,2.00
2022-09-21T12:04:37.021Z,1.90
2022-09-21T12:05:37.383Z,2.00
2022-09-21T12:06:37.253Z,2.00
2022-09-21T12:07:37.402Z,1.80
2022-09-21T12:08:37.433Z,2.00
2022-09-21T12:09:37.074Z,2.00
2022-09-21T12:10:37.443Z,1.90
2022-09-21T12:11:37.456Z,1.60
2022-09-21T12:12:37.472Z,2.20
2022-09-21T12:13:36.892Z,1.60
2022-09-21T12:15:37.311Z,1.50
2022-09-21T12:16:37.633Z,1.70
2022-09-21T12:17:36.932Z,1.80
2022-09-21T12:18:36.942Z,1.70
2022-09-21T12:19:36.842Z,1.70
2022-09-21T12:20:36.872Z,1.70
2022-09-21T12:21:36.839Z,1.70
2022-09-21T12:22:36.822Z,1.60
2022-09-21T12:23:36.963Z,1.50
2022-09-21T12:24:36.971Z,1.50
2022-09-21T12:25:36.971Z,1.60
2022-09-21T12:26:36.782Z,1.70
2022-09-21T12:27:36.782Z,1.40
2022-09-21T12:28:36.792Z,1.60
2022-09-21T12:29:37.003Z,1.80
2022-09-21T12:30:37.112Z,1.70
2022-09-21T12:31:37.018Z,1.50
2022-09-21T12:32:36.752Z,1.60
2022-09-21T12:33:36.830Z,1.50
2022-09-21T12:34:36.830Z,1.40
2022-09-21T12:35:36.844Z,1.40
2022-09-21T12:36:39.512Z,1.70
2022-09-21T12:37:36.851Z,1.40
2022-09-21T12:38:36.897Z,1.50
2022-09-21T12:39:36.725Z,1.20
2022-09-21T12:40:37.146Z,1.50
2022-09-21T12:41:37.173Z,1.40
2022-09-21T12:42:37.091Z,1.40
2022-09-21T12:43:38.142Z,1.70
2022-09-21T12:44:37.107Z,1.80
2022-09-21T12:45:36.889Z,1.70
2022-09-21T12:46:37.110Z,1.50
2022-09-21T12:47:37.120Z,1.30
2022-09-21T12:48:36.708Z,1.10
2022-09-21T12:49:37.171Z,1.40
2022-09-21T12:50:36.748Z,1.40
2022-09-21T12:51:36.941Z,1.30
2022-09-21T12:52:37.201Z,1.70
2022-09-21T12:53:36.800Z,1.40
2022-09-21T12:54:36.800Z,1.40
2022-09-21T12:55:36.650Z,1.40
2022-09-21T12:56:37.382Z,1.20
2022-09-21T12:58:37.191Z,1.50
2022-09-21T12:59:37.401Z,1.40
2022-09-21T13:00:37.407Z,1.20
2022-09-21T13:01:36.684Z,1.30
2022-09-21T13:02:37.192Z,1.10
2022-09-21T13:03:36.611Z,1.00
2022-09-21T13:04:37.021Z,1.10
2022-09-21T13:05:37.279Z,1.30
2022-09-21T13:06:36.641Z,1.40
2022-09-21T13:07:37.249Z,1.50
2022-09-21T13:08:36.843Z,1.30
2022-09-21T13:09:36.847Z,1.80
2022-09-21T13:10:36.506Z,1.60
2022-09-21T13:11:36.518Z,1.30
2022-09-21T13:12:36.478Z,1.20
2022-09-21T13:13:36.513Z,1.50
2022-09-21T13:14:36.528Z,1.20
2022-09-21T13:15:36.698Z,1.50
2022-09-21T13:16:36.749Z,1.20
2022-09-21T13:17:36.715Z,1.40
2022-09-21T13:18:36.925Z,1.40
2022-09-21T13:19:36.708Z,1.20
2022-09-21T13:20:36.560Z,1.50
2022-09-21T13:21:36.717Z,1.80
2022-09-21T13:22:36.416Z,1.60